Terminal Aerodrome Forecast
Issued by NWS

Home | Current Version | Previous Version | Text Only | Print | Product List | Glossary On
Versions: 1 2 3 4 5 6 7 8 9 10 11 12 13 14 15 16
349
FTUS46 KSEW 282320
TAFCLM
TAF
KCLM 282320Z 2900/2924 VRB04KT P6SM -SHRA FEW035 OVC100
     FM290200 VRB03KT P6SM FEW035 BKN100 BKN150
     FM290500 VRB04KT P6SM FEW035 SCT150
     FM292100 32005KT P6SM SCT030 BKN050=

USA.gov is the U.S. government's official web portal to all federal, state and local government web resources and services.